createdAt,value
2022-08-25T00:00:29.550Z,98047.34
2022-08-25T00:03:03.048Z,98050.59
2022-08-25T00:05:38.196Z,98043.00
2022-08-25T00:08:11.468Z,98047.28
2022-08-25T00:10:46.231Z,98045.34
2022-08-25T00:13:36.736Z,98045.28
2022-08-25T00:16:10.266Z,98045.16
2022-08-25T00:18:45.736Z,98044.91
2022-08-25T00:21:19.368Z,98049.16
2022-08-25T00:23:52.677Z,98042.97
2022-08-25T00:26:27.721Z,98050.69
2022-08-25T00:29:01.864Z,98045.22
2022-08-25T00:31:38.464Z,98047.88
2022-08-25T00:34:16.719Z,98045.38
2022-08-25T00:36:51.806Z,98040.19
2022-08-25T00:39:26.195Z,98040.81
2022-08-25T00:42:01.654Z,98040.97
2022-08-25T00:44:35.525Z,98040.25
2022-08-25T00:47:10.145Z,98042.78
2022-08-25T00:49:47.995Z,98039.09
2022-08-25T00:52:25.645Z,98031.16
2022-08-25T00:55:07.710Z,98034.44
2022-08-25T00:57:48.468Z,98044.09
2022-08-25T01:00:27.460Z,98037.19
2022-08-25T01:03:01.712Z,98036.34
2022-08-25T01:05:35.461Z,98039.75
2022-08-25T01:08:10.166Z,98044.00
2022-08-25T01:10:45.810Z,98039.53
2022-08-25T01:13:24.278Z,98035.91
2022-08-25T01:15:58.979Z,98033.28
2022-08-25T01:18:46.363Z,98036.59
2022-08-25T01:21:24.465Z,98039.06
2022-08-25T01:24:01.082Z,98028.75
2022-08-25T01:26:36.767Z,98030.38
2022-08-25T01:29:25.459Z,98025.97
2022-08-25T01:32:03.518Z,98025.03
2022-08-25T01:34:41.395Z,98020.44
2022-08-25T01:37:19.161Z,98016.09
2022-08-25T01:39:52.340Z,98022.00
2022-08-25T01:42:43.619Z,98021.78
2022-08-25T01:45:16.847Z,98018.16
2022-08-25T01:47:50.057Z,98020.84
2022-08-25T01:50:23.137Z,98016.31
2022-08-25T01:53:04.598Z,98005.97
2022-08-25T01:55:52.875Z,98018.84
2022-08-25T01:58:30.147Z,98015.38
2022-08-25T02:01:07.529Z,98001.59
2022-08-25T02:03:44.597Z,98005.91
2022-08-25T02:06:28.672Z,98004.09
2022-08-25T02:09:08.619Z,98002.47
2022-08-25T02:11:46.153Z,98004.22
2022-08-25T02:14:20.507Z,98005.19
2022-08-25T02:16:55.020Z,97996.72
2022-08-25T02:19:30.949Z,97999.38
2022-08-25T02:22:04.831Z,97998.72
2022-08-25T02:24:39.284Z,97995.38
2022-08-25T02:27:12.458Z,98003.34
2022-08-25T02:29:45.737Z,97994.75
2022-08-25T02:32:18.802Z,98001.69
2022-08-25T02:34:51.877Z,98003.47
2022-08-25T02:37:24.950Z,98001.75
2022-08-25T02:40:00.102Z,98000.81
2022-08-25T02:42:33.451Z,97999.84
2022-08-25T02:45:08.477Z,97994.50
2022-08-25T02:47:41.814Z,97993.44
2022-08-25T02:50:15.055Z,97992.41
2022-08-25T02:52:50.481Z,97984.41
2022-08-25T02:55:25.019Z,97992.91
2022-08-25T02:57:58.119Z,97984.81
2022-08-25T03:00:31.199Z,97985.47
2022-08-25T03:03:06.280Z,97983.63
2022-08-25T03:05:39.741Z,97986.16
2022-08-25T03:08:13.535Z,97979.94
2022-08-25T03:10:47.943Z,97987.72
2022-08-25T03:13:25.081Z,97983.38
2022-08-25T03:15:58.145Z,97986.06
2022-08-25T03:18:32.364Z,97984.31
2022-08-25T03:21:05.747Z,97984.41
2022-08-25T03:23:39.897Z,97979.34
2022-08-25T03:26:32.087Z,97978.38
2022-08-25T03:29:05.860Z,97978.28
2022-08-25T03:31:39.270Z,97975.53
2022-08-25T03:34:12.543Z,97980.78
2022-08-25T03:36:47.681Z,97979.81
2022-08-25T03:39:23.299Z,97979.75
2022-08-25T03:41:57.738Z,97987.31
2022-08-25T03:44:30.840Z,97982.72
2022-08-25T03:47:04.345Z,97988.56
2022-08-25T03:49:37.551Z,97996.22
2022-08-25T03:52:10.695Z,98001.44
2022-08-25T03:54:43.773Z,97993.53
2022-08-25T03:57:20.627Z,98002.09
2022-08-25T03:59:53.671Z,98005.50
2022-08-25T04:02:26.875Z,98007.03
2022-08-25T04:04:59.953Z,98004.44
2022-08-25T04:07:33.265Z,98005.19
2022-08-25T04:10:07.134Z,98009.41
2022-08-25T04:12:41.799Z,97999.16
2022-08-25T04:15:14.918Z,97996.59
2022-08-25T04:17:48.007Z,98006.16
2022-08-25T04:20:24.191Z,97994.53
2022-08-25T04:23:00.594Z,97992.53
2022-08-25T04:25:33.858Z,97980.34
2022-08-25T04:28:09.009Z,97977.03
2022-08-25T04:30:44.104Z,97975.38
2022-08-25T04:33:17.158Z,97978.72
2022-08-25T04:35:51.702Z,97970.78
2022-08-25T04:38:24.759Z,97979.19
2022-08-25T04:40:58.745Z,97981.78
2022-08-25T04:43:34.847Z,97981.06
2022-08-25T04:46:09.325Z,97987.81
2022-08-25T04:48:43.559Z,97984.47
2022-08-25T04:51:21.071Z,97989.91
2022-08-25T04:53:56.879Z,97980.81
2022-08-25T04:56:32.956Z,97979.16
2022-08-25T04:59:11.857Z,97986.38
2022-08-25T05:01:47.808Z,97983.38
2022-08-25T05:04:28.398Z,97989.50
2022-08-25T05:07:03.764Z,97997.44
2022-08-25T05:09:38.050Z,97999.16
2022-08-25T05:12:12.643Z,97997.44
2022-08-25T05:14:48.745Z,98004.16
2022-08-25T05:17:22.963Z,98008.44
2022-08-25T05:19:57.145Z,97994.69
2022-08-25T05:22:31.429Z,97993.16
2022-08-25T05:25:05.693Z,98001.75
2022-08-25T05:27:39.135Z,98000.25
2022-08-25T05:30:14.819Z,98001.25
2022-08-25T05:32:49.204Z,97998.31
2022-08-25T05:35:24.712Z,97984.19
2022-08-25T05:37:58.516Z,97982.44
2022-08-25T05:40:33.121Z,97982.31
2022-08-25T05:43:06.787Z,97979.19
2022-08-25T05:45:41.986Z,97971.41
2022-08-25T05:48:15.797Z,97973.72
2022-08-25T05:50:54.087Z,97963.47
2022-08-25T05:53:31.049Z,97967.50
2022-08-25T05:56:08.925Z,97974.09
2022-08-25T05:58:44.805Z,97967.66
2022-08-25T06:01:47.639Z,97961.19
2022-08-25T06:04:22.718Z,97967.03
2022-08-25T06:06:56.905Z,97958.09
2022-08-25T06:09:31.479Z,97958.50
2022-08-25T06:12:06.437Z,97953.78
2022-08-25T06:14:40.660Z,97958.28
2022-08-25T06:17:15.134Z,97961.78
2022-08-25T06:19:48.224Z,97963.63
2022-08-25T06:22:21.413Z,97952.81
2022-08-25T06:24:54.978Z,97950.56
2022-08-25T06:27:28.087Z,97948.06
2022-08-25T06:30:07.640Z,97942.03
2022-08-25T06:32:45.650Z,97938.53
2022-08-25T06:35:21.062Z,97933.34
2022-08-25T06:37:54.775Z,97929.84
2022-08-25T06:40:28.051Z,97935.06
2022-08-25T06:43:01.434Z,97928.06
2022-08-25T06:45:34.551Z,97929.88
2022-08-25T06:48:09.283Z,97926.41
2022-08-25T06:50:43.321Z,97933.38
2022-08-25T06:53:16.476Z,97929.91
2022-08-25T06:55:59.812Z,97923.81
2022-08-25T06:58:35.432Z,97926.41
2022-08-25T07:01:14.989Z,97921.81
2022-08-25T07:03:59.126Z,97923.38
2022-08-25T07:06:36.070Z,97926.88
2022-08-25T07:09:10.904Z,97926.06
2022-08-25T07:11:45.230Z,97925.69
2022-08-25T07:14:19.678Z,97929.00
2022-08-25T07:16:52.855Z,97932.00
2022-08-25T07:19:27.359Z,97937.94
2022-08-25T07:22:00.476Z,97930.63
2022-08-25T07:24:34.186Z,97930.16
2022-08-25T07:27:07.511Z,97926.56
2022-08-25T07:29:42.667Z,97926.34
2022-08-25T07:32:15.927Z,97927.03
2022-08-25T07:35:07.869Z,97914.41
2022-08-25T07:37:49.195Z,97923.69
2022-08-25T07:40:25.383Z,97926.63
2022-08-25T07:43:02.060Z,97925.19
2022-08-25T07:45:42.097Z,97922.91
2022-08-25T07:48:22.502Z,97922.38
2022-08-25T07:50:57.559Z,97917.94
2022-08-25T07:53:30.750Z,97933.94
2022-08-25T07:58:44.835Z,97924.00
2022-08-25T08:01:20.962Z,97924.63
2022-08-25T08:03:54.187Z,97927.63
2022-08-25T08:06:28.747Z,97913.50
2022-08-25T08:09:02.799Z,97909.09
2022-08-25T08:11:45.170Z,97917.00
2022-08-25T08:14:26.846Z,97910.75
2022-08-25T08:16:59.954Z,97915.19
2022-08-25T08:19:33.043Z,97928.66
2022-08-25T08:22:11.145Z,97926.56
2022-08-25T08:24:54.534Z,97921.81
2022-08-25T08:27:29.595Z,97909.75
2022-08-25T08:30:02.969Z,97914.84
2022-08-25T08:32:53.665Z,97917.63
2022-08-25T08:35:29.793Z,97913.09
2022-08-25T08:38:10.328Z,97904.94
2022-08-25T08:41:23.379Z,97900.22
2022-08-25T08:44:08.248Z,97901.59
2022-08-25T08:46:52.481Z,97904.94
2022-08-25T08:49:37.440Z,97897.03
2022-08-25T08:52:12.438Z,97889.31
2022-08-25T08:54:51.831Z,97884.59
2022-08-25T08:57:29.841Z,97879.44
2022-08-25T09:00:08.263Z,97884.97
2022-08-25T09:02:51.657Z,97880.28
2022-08-25T09:05:29.747Z,97879.03
2022-08-25T09:08:07.917Z,97871.88
2022-08-25T09:10:57.561Z,97873.16
2022-08-25T09:13:45.552Z,97875.75
2022-08-25T09:16:56.343Z,97874.44
2022-08-25T09:19:56.021Z,97872.59
2022-08-25T09:22:47.553Z,97863.50
2022-08-25T09:28:32.040Z,97858.09
2022-08-25T09:31:14.688Z,97870.03
2022-08-25T09:33:48.006Z,97863.69
2022-08-25T09:36:21.119Z,97863.50
2022-08-25T09:38:56.414Z,97852.50
2022-08-25T09:41:46.970Z,97850.78
2022-08-25T09:44:55.993Z,97841.47
2022-08-25T09:47:29.498Z,97844.69
2022-08-25T09:50:05.640Z,97841.81
2022-08-25T09:52:41.315Z,97840.75
2022-08-25T09:55:32.673Z,97838.13
2022-08-25T09:58:19.445Z,97828.84
2022-08-25T10:01:15.848Z,97825.34
2022-08-25T10:03:59.330Z,97828.78
2022-08-25T10:06:44.270Z,97851.09
2022-08-25T10:09:29.390Z,97827.16
2022-08-25T10:12:04.902Z,97828.53
2022-08-25T10:14:44.283Z,97827.72
2022-08-25T10:17:27.458Z,97821.72
2022-08-25T10:20:18.361Z,97818.28
2022-08-25T10:22:53.894Z,97827.53
2022-08-25T10:25:31.254Z,97817.56
2022-08-25T10:28:13.410Z,97813.22
2022-08-25T10:30:58.915Z,97809.38
2022-08-25T10:33:47.567Z,97800.81
2022-08-25T10:36:42.987Z,97804.94
2022-08-25T10:39:36.721Z,97800.75
2022-08-25T10:42:30.581Z,97791.81
2022-08-25T10:45:36.563Z,97794.78
2022-08-25T10:48:42.833Z,97782.06
2022-08-25T10:51:41.886Z,97787.81
2022-08-25T10:54:34.344Z,97784.22
2022-08-25T10:57:20.863Z,97788.22
2022-08-25T11:00:03.159Z,97786.19
2022-08-25T11:03:03.337Z,97787.03
2022-08-25T11:05:45.159Z,97777.47
2022-08-25T11:08:24.778Z,97776.97
2022-08-25T11:11:05.465Z,97768.25
2022-08-25T11:13:45.529Z,97782.13
2022-08-25T11:16:28.972Z,97772.91
2022-08-25T11:19:10.291Z,97772.78
2022-08-25T11:21:52.363Z,97768.38
2022-08-25T11:24:44.109Z,97770.56
2022-08-25T11:27:24.359Z,97771.72
2022-08-25T11:30:07.072Z,97754.66
2022-08-25T11:32:41.663Z,97752.94
2022-08-25T11:35:18.303Z,97760.63
2022-08-25T11:38:19.323Z,97756.00
2022-08-25T11:41:11.004Z,97751.25
2022-08-25T11:44:15.229Z,97746.59
2022-08-25T11:47:21.074Z,97741.31
2022-08-25T11:49:59.585Z,97744.16
2022-08-25T11:52:50.998Z,97745.09
2022-08-25T11:55:47.282Z,97741.41
2022-08-25T11:58:41.855Z,97745.81
2022-08-25T12:02:06.458Z,97738.25
2022-08-25T12:04:44.345Z,97739.59
2022-08-25T12:07:29.370Z,97734.09
2022-08-25T12:10:21.761Z,97734.53
2022-08-25T12:13:29.107Z,97737.59
2022-08-25T12:16:02.706Z,97738.25
2022-08-25T12:18:50.491Z,97734.84
2022-08-25T12:21:33.866Z,97733.34
2022-08-25T12:24:16.412Z,97735.81
2022-08-25T12:26:58.680Z,97726.28
2022-08-25T12:29:42.166Z,97723.78
2022-08-25T12:32:39.397Z,97727.06
2022-08-25T12:35:29.541Z,97723.28
2022-08-25T12:38:10.414Z,97717.38
2022-08-25T12:41:03.623Z,97724.72
2022-08-25T12:43:40.598Z,97718.00
2022-08-25T12:46:39.420Z,97710.06
2022-08-25T12:49:31.020Z,97714.50
2022-08-25T12:52:11.052Z,97716.53
2022-08-25T12:54:50.157Z,97703.66
2022-08-25T12:57:43.029Z,97706.00
2022-08-25T13:00:22.339Z,97704.38
2022-08-25T13:04:01.727Z,97711.00
2022-08-25T13:06:51.633Z,97706.56
2022-08-25T13:10:20.238Z,97703.91
2022-08-25T13:13:02.561Z,97709.78
2022-08-25T13:15:44.544Z,97707.53
2022-08-25T13:18:24.924Z,97701.81
2022-08-25T13:21:12.589Z,97687.28
2022-08-25T13:23:50.180Z,97681.91
2022-08-25T13:26:30.183Z,97684.63
2022-08-25T13:29:17.742Z,97689.72
2022-08-25T13:31:59.005Z,97687.03
2022-08-25T13:34:37.796Z,97691.25
2022-08-25T13:37:30.558Z,97685.97
2022-08-25T13:40:17.716Z,97678.72
2022-08-25T13:42:56.212Z,97675.94
2022-08-25T13:45:34.650Z,97681.84
2022-08-25T13:48:33.263Z,97679.22
2022-08-25T13:51:19.532Z,97676.56
2022-08-25T13:54:00.317Z,97668.78
2022-08-25T13:56:40.669Z,97668.78
2022-08-25T13:59:24.573Z,97670.31
2022-08-25T14:01:59.773Z,97659.41
2022-08-25T14:04:51.047Z,97660.06
2022-08-25T14:07:34.140Z,97650.13
2022-08-25T14:10:13.163Z,97659.78
2022-08-25T14:12:49.730Z,97657.13
2022-08-25T14:15:33.456Z,97665.41
2022-08-25T14:18:14.075Z,97659.72
2022-08-25T14:20:51.451Z,97651.09
2022-08-25T14:23:27.721Z,97648.19
2022-08-25T14:26:02.169Z,97656.25
2022-08-25T14:28:36.403Z,97650.25
2022-08-25T14:31:13.782Z,97645.63
2022-08-25T14:34:01.033Z,97640.78
2022-08-25T14:36:35.966Z,97642.03
2022-08-25T14:39:09.362Z,97647.94
2022-08-25T14:41:48.715Z,97648.63
2022-08-25T14:44:27.367Z,97653.81
2022-08-25T14:47:02.683Z,97638.06
2022-08-25T14:49:43.939Z,97635.22
2022-08-25T14:52:22.511Z,97635.28
2022-08-25T14:54:57.219Z,97632.19
2022-08-25T14:57:31.825Z,97629.94
2022-08-25T15:00:08.951Z,97621.19
2022-08-25T15:02:44.962Z,97624.50
2022-08-25T15:05:28.268Z,97627.97
2022-08-25T15:08:19.452Z,97623.34
2022-08-25T15:10:53.998Z,97629.94
2022-08-25T15:13:28.627Z,97624.34
2022-08-25T15:16:01.898Z,97625.25
2022-08-25T15:18:36.553Z,97618.13
2022-08-25T15:21:09.659Z,97620.72
2022-08-25T15:23:44.668Z,97619.84
2022-08-25T15:26:19.230Z,97615.59
2022-08-25T15:28:53.731Z,97614.19
2022-08-25T15:31:26.905Z,97608.09
2022-08-25T15:34:00.393Z,97612.31
2022-08-25T15:36:36.134Z,97609.94
2022-08-25T15:39:12.044Z,97608.53
2022-08-25T15:41:47.341Z,97604.81
2022-08-25T15:44:29.026Z,97601.72
2022-08-25T15:47:02.772Z,97602.47
2022-08-25T15:49:36.955Z,97601.09
2022-08-25T15:52:12.175Z,97601.16
2022-08-25T15:54:46.208Z,97593.97
2022-08-25T15:57:24.373Z,97602.63
2022-08-25T15:59:59.422Z,97595.81
2022-08-25T16:02:34.627Z,97598.44
2022-08-25T16:05:10.230Z,97594.56
2022-08-25T16:07:46.028Z,97590.25
2022-08-25T16:10:24.737Z,97597.53
2022-08-25T16:13:29.050Z,97593.63
2022-08-25T16:16:48.378Z,97587.44
2022-08-25T16:19:21.585Z,97592.19
2022-08-25T16:21:54.962Z,97582.41
2022-08-25T16:24:28.176Z,97587.06
2022-08-25T16:27:11.132Z,97581.78
2022-08-25T16:29:45.839Z,97581.19
2022-08-25T16:32:20.930Z,97576.09
2022-08-25T16:34:54.255Z,97575.22
2022-08-25T16:37:27.388Z,97578.53
2022-08-25T16:40:00.602Z,97574.91
2022-08-25T16:42:33.847Z,97576.84
2022-08-25T16:45:08.189Z,97575.06
2022-08-25T16:47:43.325Z,97576.50
2022-08-25T16:50:18.926Z,97576.78
2022-08-25T16:53:11.900Z,97580.34
2022-08-25T16:55:46.448Z,97570.06
2022-08-25T16:58:22.256Z,97572.88
2022-08-25T17:00:57.869Z,97574.81
2022-08-25T17:03:34.601Z,97575.34
2022-08-25T17:06:10.771Z,97575.13
2022-08-25T17:08:45.421Z,97571.09
2022-08-25T17:11:23.460Z,97566.97
2022-08-25T17:14:01.829Z,97574.97
2022-08-25T17:16:39.165Z,97571.47
2022-08-25T17:19:18.576Z,97571.59
2022-08-25T17:21:54.985Z,97570.22
2022-08-25T17:24:30.493Z,97573.03
2022-08-25T17:27:06.914Z,97569.75
2022-08-25T17:29:43.843Z,97580.38
2022-08-25T17:32:19.009Z,97575.09
2022-08-25T17:34:54.948Z,97575.41
2022-08-25T17:37:29.535Z,97574.72
2022-08-25T17:40:07.182Z,97575.88
2022-08-25T17:42:42.009Z,97578.75
2022-08-25T17:45:17.479Z,97578.16
2022-08-25T17:47:53.025Z,97581.84
2022-08-25T17:50:29.748Z,97581.03
2022-08-25T17:53:05.477Z,97585.53
2022-08-25T17:55:42.352Z,97589.19
2022-08-25T17:58:19.521Z,97585.06
2022-08-25T18:00:54.186Z,97587.81
2022-08-25T18:03:29.556Z,97589.69
2022-08-25T18:06:05.606Z,97588.91
2022-08-25T18:08:38.733Z,97593.47
2022-08-25T18:11:14.400Z,97592.69
2022-08-25T18:13:47.559Z,97595.41
2022-08-25T18:16:24.682Z,97597.31
2022-08-25T18:18:57.950Z,97601.78
2022-08-25T18:21:32.663Z,97593.13
2022-08-25T18:24:06.513Z,97605.53
2022-08-25T18:26:39.838Z,97603.88
2022-08-25T18:29:13.316Z,97605.72
2022-08-25T18:31:48.621Z,97602.28
2022-08-25T18:34:24.018Z,97610.28
2022-08-25T18:37:19.189Z,97608.56
2022-08-25T18:40:09.876Z,97611.28
2022-08-25T18:42:43.161Z,97613.94
2022-08-25T18:45:16.342Z,97614.00
2022-08-25T18:47:53.192Z,97611.41
2022-08-25T18:50:28.498Z,97614.13
2022-08-25T18:53:03.711Z,97611.56
2022-08-25T18:55:40.359Z,97620.28
2022-08-25T18:58:14.309Z,97619.44
2022-08-25T19:00:47.667Z,97616.81
2022-08-25T19:03:23.435Z,97622.94
2022-08-25T19:05:57.958Z,97620.38
2022-08-25T19:08:32.434Z,97621.25
2022-08-25T19:11:06.080Z,97617.81
2022-08-25T19:13:40.208Z,97614.34
2022-08-25T19:16:20.532Z,97617.84
2022-08-25T19:18:54.117Z,97620.50
2022-08-25T19:21:27.276Z,97628.34
2022-08-25T19:24:03.087Z,97624.84
2022-08-25T19:26:37.433Z,97615.28
2022-08-25T19:29:15.890Z,97630.09
2022-08-25T19:31:50.705Z,97631.84
2022-08-25T19:34:30.408Z,97630.09
2022-08-25T19:37:06.483Z,97638.81
2022-08-25T19:39:52.896Z,97640.53
2022-08-25T19:42:36.700Z,97637.03
2022-08-25T19:45:13.581Z,97635.31
2022-08-25T19:47:46.948Z,97631.81
2022-08-25T19:50:21.617Z,97642.22
2022-08-25T19:52:54.986Z,97637.00
2022-08-25T19:55:29.648Z,97647.41
2022-08-25T19:58:03.747Z,97651.78
2022-08-25T20:00:39.483Z,97641.28
2022-08-25T20:03:12.654Z,97655.22
2022-08-25T20:05:46.243Z,97647.34
2022-08-25T20:08:19.571Z,97650.81
2022-08-25T20:11:04.526Z,97644.72
2022-08-25T20:13:37.755Z,97644.72
2022-08-25T20:16:11.157Z,97643.84
2022-08-25T20:18:44.309Z,97647.31
2022-08-25T20:21:17.457Z,97645.56
2022-08-25T20:24:07.911Z,97645.53
2022-08-25T20:26:44.189Z,97645.50
2022-08-25T20:29:17.345Z,97652.38
2022-08-25T20:31:50.470Z,97647.13
2022-08-25T20:34:23.922Z,97647.94
2022-08-25T20:36:57.399Z,97650.53
2022-08-25T20:39:30.634Z,97648.78
2022-08-25T20:42:06.078Z,97650.47
2022-08-25T20:44:42.117Z,97653.03
2022-08-25T20:47:15.924Z,97650.38
2022-08-25T20:49:50.242Z,97654.69
2022-08-25T20:52:23.573Z,97657.28
2022-08-25T20:54:57.410Z,97666.75
2022-08-25T20:57:33.200Z,97664.13
2022-08-25T21:00:08.923Z,97661.41
2022-08-25T21:02:42.770Z,97668.31
2022-08-25T21:05:16.261Z,97670.91
2022-08-25T21:07:49.448Z,97664.75
2022-08-25T21:10:22.807Z,97667.41
2022-08-25T21:12:57.268Z,97667.38
2022-08-25T21:15:30.409Z,97663.94
2022-08-25T21:18:04.122Z,97667.41
2022-08-25T21:20:37.330Z,97667.38
2022-08-25T21:23:10.547Z,97673.41
2022-08-25T21:25:45.654Z,97661.19
2022-08-25T21:28:20.331Z,97670.72
2022-08-25T21:30:54.331Z,97671.44
2022-08-25T21:33:29.451Z,97668.63
2022-08-25T21:36:02.714Z,97672.94
2022-08-25T21:38:36.873Z,97669.47
2022-08-25T21:41:15.515Z,97670.34
2022-08-25T21:43:51.275Z,97672.06
2022-08-25T21:46:27.669Z,97672.94
2022-08-25T21:49:06.193Z,97676.34
2022-08-25T21:51:42.532Z,97671.97
2022-08-25T21:54:18.967Z,97676.28
2022-08-25T21:57:00.290Z,97674.44
2022-08-25T21:59:40.303Z,97669.25
2022-08-25T22:02:19.277Z,97682.19
2022-08-25T22:04:55.989Z,97674.28
2022-08-25T22:07:29.150Z,97670.81
2022-08-25T22:10:16.810Z,97673.34
2022-08-25T22:12:51.287Z,97677.59
2022-08-25T22:15:26.021Z,97663.63
2022-08-25T22:17:59.106Z,97664.50
2022-08-25T22:20:34.028Z,97661.00
2022-08-25T22:23:07.235Z,97672.19
2022-08-25T22:25:40.687Z,97673.97
2022-08-25T22:28:14.947Z,97674.88
2022-08-25T22:30:50.214Z,97674.78
2022-08-25T22:33:23.404Z,97668.69
2022-08-25T22:35:59.772Z,97671.25
2022-08-25T22:38:33.279Z,97665.16
2022-08-25T22:41:06.536Z,97658.19
2022-08-25T22:43:40.041Z,97664.28
2022-08-25T22:46:15.174Z,97669.41
2022-08-25T22:48:51.501Z,97669.31
2022-08-25T22:51:32.052Z,97664.91
2022-08-25T22:54:09.589Z,97676.16
2022-08-25T22:56:45.499Z,97667.50
2022-08-25T22:59:22.068Z,97668.28
2022-08-25T23:02:06.632Z,97665.50
2022-08-25T23:04:43.551Z,97665.31
2022-08-25T23:07:18.777Z,97659.25
2022-08-25T23:09:54.226Z,97658.34
2022-08-25T23:12:29.480Z,97653.16
2022-08-25T23:15:04.269Z,97654.81
2022-08-25T23:17:41.247Z,97658.34
2022-08-25T23:20:29.336Z,97663.53
2022-08-25T23:23:05.311Z,97649.69
2022-08-25T23:25:43.496Z,97645.38
2022-08-25T23:28:18.574Z,97653.16
2022-08-25T23:30:57.313Z,97649.69
2022-08-25T23:33:35.787Z,97649.66
2022-08-25T23:36:13.512Z,97647.03
2022-08-25T23:38:51.680Z,97655.63
2022-08-25T23:41:28.277Z,97653.00
2022-08-25T23:44:03.799Z,97646.94
2022-08-25T23:46:38.575Z,97641.69
2022-08-25T23:49:18.659Z,97642.53
2022-08-25T23:51:55.958Z,97635.59
2022-08-25T23:54:31.823Z,97632.03
2022-08-25T23:57:06.957Z,97630.31
2022-08-25T23:59:42.029Z,97638.91
